createdAt,value
2019-06-20T00:03:18.743Z,3.50
2019-06-20T00:08:42.740Z,3.60
2019-06-20T00:14:07.218Z,3.30
2019-06-20T00:19:31.965Z,3.20
2019-06-20T00:24:56.863Z,2.98
2019-06-20T00:30:21.494Z,3.30
2019-06-20T00:35:45.387Z,2.80
2019-06-20T00:41:09.869Z,3.20
2019-06-20T00:46:33.803Z,3.47
2019-06-20T00:51:58.532Z,3.02
2019-06-20T00:57:22.571Z,3.33
2019-06-20T01:02:46.914Z,3.08
2019-06-20T01:08:11.850Z,2.98
2019-06-20T01:13:37.432Z,3.17
2019-06-20T01:19:01.545Z,2.85
2019-06-20T01:24:26.060Z,3.00
2019-06-20T01:29:49.969Z,2.62
2019-06-20T01:35:14.826Z,3.30
2019-06-20T01:40:39.697Z,2.72
2019-06-20T01:46:03.559Z,2.62
2019-06-20T01:51:27.714Z,2.45
2019-06-20T01:56:51.481Z,2.77
2019-06-20T02:02:16.195Z,2.75
2019-06-20T02:07:40.809Z,2.50
2019-06-20T02:13:06.246Z,2.27
2019-06-20T02:18:30.928Z,2.52
2019-06-20T02:23:56.273Z,2.92
2019-06-20T02:29:20.182Z,2.80
2019-06-20T02:34:44.879Z,3.20
2019-06-20T02:40:09.677Z,3.15
2019-06-20T02:45:35.141Z,3.77
2019-06-20T02:50:59.339Z,3.50
2019-06-20T02:56:23.265Z,3.37
2019-06-20T03:01:47.443Z,3.80
2019-06-20T03:07:11.392Z,3.90
2019-06-20T03:12:36.104Z,4.00
2019-06-20T03:18:00.825Z,3.47
2019-06-20T03:23:25.836Z,3.83
2019-06-20T03:28:49.448Z,3.95
2019-06-20T03:34:13.620Z,3.80
2019-06-20T03:39:38.260Z,4.75
2019-06-20T03:45:02.883Z,3.95
2019-06-20T03:50:28.117Z,4.95
2019-06-20T03:55:52.352Z,5.03
2019-06-20T04:01:16.639Z,5.05
2019-06-20T04:06:41.123Z,5.15
2019-06-20T04:12:05.999Z,4.87
2019-06-20T04:17:30.457Z,4.97
2019-06-20T04:22:55.388Z,4.50
2019-06-20T04:28:19.823Z,4.33
2019-06-20T04:33:44.051Z,4.05
2019-06-20T04:39:18.777Z,4.03
2019-06-20T04:44:33.930Z,4.10
2019-06-20T04:49:58.366Z,4.03
2019-06-20T04:55:22.631Z,4.70
2019-06-20T05:00:46.983Z,4.00
2019-06-20T05:06:12.760Z,3.70
2019-06-20T05:11:37.431Z,3.40
2019-06-20T05:17:01.876Z,3.70
2019-06-20T05:22:26.606Z,3.75
2019-06-20T05:27:50.593Z,3.80
2019-06-20T05:33:15.271Z,3.17
2019-06-20T05:38:38.833Z,3.33
2019-06-20T05:44:02.741Z,3.12
2019-06-20T05:49:26.636Z,3.42
2019-06-20T05:54:51.608Z,4.00
2019-06-20T06:00:16.063Z,3.12
2019-06-20T06:05:40.179Z,3.40
2019-06-20T06:11:04.227Z,3.33
2019-06-20T06:16:29.075Z,3.35
2019-06-20T06:21:53.437Z,3.10
2019-06-20T06:27:17.211Z,3.47
2019-06-20T06:32:41.495Z,5.17
2019-06-20T06:38:05.877Z,6.10
2019-06-20T06:43:30.717Z,5.70
2019-06-20T06:48:54.576Z,6.12
2019-06-20T06:54:19.054Z,7.45
2019-06-20T06:59:43.050Z,7.15
2019-06-20T07:05:09.098Z,6.17
2019-06-20T07:10:33.768Z,5.47
2019-06-20T07:15:57.571Z,5.17
2019-06-20T07:21:22.575Z,5.12
2019-06-20T07:26:47.390Z,5.12
2019-06-20T07:32:12.421Z,4.53
2019-06-20T07:37:37.356Z,4.85
2019-06-20T07:43:01.283Z,4.85
2019-06-20T07:48:25.837Z,4.80
2019-06-20T07:53:50.828Z,4.17
2019-06-20T07:59:14.399Z,5.25
2019-06-20T08:04:39.062Z,4.58
2019-06-20T08:10:03.797Z,4.45
2019-06-20T08:15:28.319Z,3.95
2019-06-20T08:20:52.914Z,3.67
2019-06-20T08:26:17.608Z,3.35
2019-06-20T08:31:42.265Z,3.37
2019-06-20T08:37:07.033Z,3.77
2019-06-20T08:42:30.742Z,2.77
2019-06-20T08:47:56.481Z,3.33
2019-06-20T08:53:21.298Z,3.37
2019-06-20T08:58:46.010Z,3.27
2019-06-20T09:04:10.619Z,2.98
2019-06-20T09:09:34.541Z,2.55
2019-06-20T09:14:59.284Z,2.90
2019-06-20T09:20:23.236Z,3.40
2019-06-20T09:25:48.105Z,2.90
2019-06-20T09:31:11.576Z,3.10
2019-06-20T09:36:35.985Z,3.05
2019-06-20T09:41:59.650Z,3.30
2019-06-20T09:47:23.678Z,3.67
2019-06-20T09:52:49.772Z,3.77
2019-06-20T09:58:13.841Z,4.00
2019-06-20T10:03:39.023Z,3.40
2019-06-20T10:09:02.506Z,3.47
2019-06-20T10:14:28.712Z,3.22
2019-06-20T10:19:52.622Z,3.10
2019-06-20T10:25:16.618Z,3.33
2019-06-20T10:30:41.066Z,2.72
2019-06-20T10:36:06.245Z,3.30
2019-06-20T10:41:30.192Z,3.02
2019-06-20T10:46:54.603Z,3.02
2019-06-20T10:52:19.627Z,2.62
2019-06-20T10:57:44.566Z,2.83
2019-06-20T11:03:08.831Z,2.80
2019-06-20T11:08:32.685Z,3.15
2019-06-20T11:13:56.868Z,2.95
2019-06-20T11:19:21.492Z,3.02
2019-06-20T11:24:47.442Z,3.20
2019-06-20T11:30:12.286Z,3.10
2019-06-20T11:35:37.747Z,3.40
2019-06-20T11:41:02.531Z,3.55
2019-06-20T11:46:26.327Z,3.58
2019-06-20T11:51:50.964Z,3.17
2019-06-20T11:57:14.695Z,3.55
2019-06-20T12:02:40.502Z,3.52
2019-06-20T12:08:04.738Z,3.22
2019-06-20T12:13:29.507Z,3.55
2019-06-20T12:18:54.092Z,3.72
2019-06-20T12:24:18.907Z,3.47
2019-06-20T12:29:44.432Z,4.17
2019-06-20T12:35:10.157Z,3.22
2019-06-20T12:40:36.019Z,3.87
2019-06-20T12:46:00.857Z,3.42
2019-06-20T12:51:25.742Z,3.15
2019-06-20T12:56:49.366Z,3.30
2019-06-20T13:02:13.674Z,2.90
2019-06-20T13:07:39.256Z,2.80
2019-06-20T13:13:03.865Z,2.80
2019-06-20T13:18:27.985Z,2.77
2019-06-20T13:23:51.830Z,3.22
2019-06-20T13:29:17.474Z,2.47
2019-06-20T13:34:42.933Z,2.60
2019-06-20T13:40:08.535Z,2.67
2019-06-20T13:45:33.271Z,2.80
2019-06-20T13:50:57.279Z,2.90
2019-06-20T13:56:21.285Z,2.42
2019-06-20T14:01:47.116Z,2.98
2019-06-20T14:07:11.358Z,3.47
2019-06-20T14:12:35.084Z,4.20
2019-06-20T14:18:00.024Z,4.58
2019-06-20T14:23:23.798Z,4.87
2019-06-20T14:28:48.306Z,4.60
2019-06-20T14:34:12.683Z,4.65
2019-06-20T14:39:37.113Z,4.25
2019-06-20T14:45:01.279Z,4.00
2019-06-20T14:50:26.085Z,4.20
2019-06-20T14:55:49.909Z,4.22
2019-06-20T15:01:13.770Z,2.87
2019-06-20T15:06:37.851Z,2.95
2019-06-20T15:12:01.951Z,2.27
2019-06-20T15:17:26.424Z,3.60
2019-06-20T15:22:52.709Z,2.47
2019-06-20T15:28:17.309Z,2.60
2019-06-20T15:33:41.748Z,2.30
2019-06-20T15:39:06.595Z,3.20
2019-06-20T15:44:30.982Z,3.55
2019-06-20T15:49:55.121Z,3.77
2019-06-20T15:55:20.989Z,3.12
2019-06-20T16:00:45.102Z,3.15
2019-06-20T16:06:09.713Z,4.60
2019-06-20T16:11:34.770Z,3.47
2019-06-20T16:16:58.537Z,3.22
2019-06-20T16:22:27.009Z,3.25
2019-06-20T16:27:51.901Z,2.80
2019-06-20T16:33:24.755Z,2.90
2019-06-20T16:38:41.004Z,3.20
2019-06-20T16:44:05.036Z,2.90
2019-06-20T16:49:29.827Z,2.92
2019-06-20T16:54:54.077Z,3.12
2019-06-20T17:00:18.614Z,2.92
2019-06-20T17:05:42.735Z,3.10
2019-06-20T17:11:09.418Z,3.40
2019-06-20T17:16:34.032Z,3.60
2019-06-20T17:21:58.564Z,3.10
2019-06-20T17:27:23.662Z,3.22
2019-06-20T17:32:48.424Z,2.83
2019-06-20T17:38:12.970Z,3.52
2019-06-20T17:43:37.468Z,3.40
2019-06-20T17:49:02.164Z,3.30
2019-06-20T17:54:26.908Z,3.50
2019-06-20T17:59:51.606Z,3.45
2019-06-20T18:05:16.662Z,3.27
2019-06-20T18:10:42.769Z,3.55
2019-06-20T18:16:23.788Z,3.87
2019-06-20T18:21:32.886Z,3.62
2019-06-20T18:26:56.716Z,3.90
2019-06-20T18:32:21.257Z,3.37
2019-06-20T18:37:47.167Z,3.72
2019-06-20T18:43:11.679Z,3.50
2019-06-20T18:48:35.993Z,3.98
2019-06-20T18:54:00.507Z,3.87
2019-06-20T18:59:24.273Z,5.25
2019-06-20T19:04:50.973Z,4.28
2019-06-20T19:10:21.358Z,4.50
2019-06-20T19:15:44.783Z,11.00
2019-06-20T19:21:08.387Z,5.30
2019-06-20T19:26:32.485Z,5.37
2019-06-20T19:31:56.291Z,5.85
2019-06-20T19:37:20.914Z,4.42
2019-06-20T19:42:45.288Z,5.20
2019-06-20T19:48:09.390Z,5.25
2019-06-20T19:53:34.295Z,9.03
2019-06-20T19:58:59.472Z,5.15
2019-06-20T20:04:24.346Z,4.70
2019-06-20T20:09:48.943Z,7.62
2019-06-20T20:15:14.039Z,5.40
2019-06-20T20:20:37.995Z,5.85
2019-06-20T20:26:01.625Z,6.72
2019-06-20T20:31:26.117Z,5.15
2019-06-20T20:36:50.943Z,5.45
2019-06-20T20:42:17.870Z,4.85
2019-06-20T20:47:42.229Z,4.75
2019-06-20T20:53:06.763Z,5.22
2019-06-20T20:58:30.406Z,5.05
2019-06-20T21:03:55.001Z,5.53
2019-06-20T21:09:18.859Z,5.37
2019-06-20T21:14:43.226Z,5.70
2019-06-20T21:20:07.195Z,5.87
2019-06-20T21:25:32.408Z,6.22
2019-06-20T21:30:57.019Z,7.12
2019-06-20T21:36:21.751Z,6.42
2019-06-20T21:41:46.566Z,6.28
2019-06-20T21:47:10.724Z,6.70
2019-06-20T21:52:34.704Z,6.25
2019-06-20T21:57:59.279Z,6.40
2019-06-20T22:03:23.510Z,6.03
2019-06-20T22:08:47.390Z,6.13
2019-06-20T22:14:12.230Z,6.22
2019-06-20T22:19:36.071Z,6.95
2019-06-20T22:25:00.539Z,7.65
2019-06-20T22:30:41.633Z,9.48
2019-06-20T22:36:06.309Z,10.55
2019-06-20T22:41:30.125Z,12.45
2019-06-20T22:46:54.417Z,17.45
2019-06-20T22:52:19.440Z,17.42
2019-06-20T22:57:43.931Z,19.62
2019-06-20T23:03:08.900Z,17.62
2019-06-20T23:08:34.869Z,18.67
2019-06-20T23:13:58.593Z,22.42
2019-06-20T23:19:23.011Z,19.42
2019-06-20T23:24:47.556Z,14.98
2019-06-20T23:30:13.902Z,16.32
2019-06-20T23:35:37.519Z,17.62
2019-06-20T23:41:01.335Z,15.75
2019-06-20T23:46:25.941Z,16.45
2019-06-20T23:52:01.963Z,16.82
2019-06-20T23:57:26.375Z,17.82
